Time;durP1;ratioP1;P1;durP2;ratioP2;P2;SDS_P1;SDS_P2;PMS_P1;PMS_P2;Temp;Humidity;BMP_temperature;BMP_pressure;BME280_temperature;BME280_humidity;BME280_pressure;Samples;Min_cycle;Max_cycle;Signal;HPM_P1;HPM_P2
2021/06/14 00:00:21;;;;;;;5.67;2.53;;;;;;;24.79;34.89;97336.31;5053858;28;20261;-64
2021/06/14 00:02:47;;;;;;;3.43;3.13;;;;;;;24.45;32.55;97332.69;5053898;28;20186;-64
2021/06/14 00:05:26;;;;;;;3.40;3.10;;;;;;;23.77;33.29;97331.34;5053406;28;20528;-64
2021/06/14 00:07:51;;;;;;;3.87;2.23;;;;;;;23.31;34.10;97339.13;5054059;28;20414;-66
2021/06/14 00:10:19;;;;;;;3.30;2.50;;;;;;;22.79;37.48;97321.00;5044167;28;20428;-65
2021/06/14 00:12:44;;;;;;;3.97;2.83;;;;;;;22.51;35.54;97330.44;5038119;28;20553;-65
2021/06/14 00:15:10;;;;;;;2.47;2.27;;;;;;;23.09;37.83;97330.81;5053805;28;20438;-65
2021/06/14 00:17:36;;;;;;;5.80;2.43;;;;;;;23.59;37.17;97334.13;5052337;28;20179;-65
2021/06/14 00:20:05;;;;;;;5.20;3.27;;;;;;;23.82;35.70;97333.31;5051893;28;20772;-66
2021/06/14 00:22:31;;;;;;;2.80;2.60;;;;;;;23.61;36.25;97324.00;5050237;28;20539;-66
2021/06/14 00:24:57;;;;;;;3.30;2.83;;;;;;;22.88;35.77;97323.34;5053333;28;20441;-65
2021/06/14 00:27:22;;;;;;;4.03;2.70;;;;;;;22.86;38.45;97321.72;5052249;28;20677;-66
2021/06/14 00:29:48;;;;;;;4.47;2.50;;;;;;;23.41;36.38;97322.53;5053466;28;20191;-65
2021/06/14 00:32:13;;;;;;;3.03;2.37;;;;;;;23.57;35.26;97321.00;5052860;28;20276;-65
2021/06/14 00:34:39;;;;;;;2.67;2.43;;;;;;;22.96;35.84;97315.81;5053040;28;20292;-65
2021/06/14 00:37:04;;;;;;;2.90;2.70;;;;;;;22.30;37.16;97321.00;5053404;28;20199;-66
2021/06/14 00:39:30;;;;;;;7.83;3.10;;;;;;;21.57;37.50;97325.28;5045334;28;20195;-65
2021/06/14 00:41:55;;;;;;;5.20;3.07;;;;;;;21.02;42.13;97324.94;5053380;28;20211;-64
2021/06/14 00:44:21;;;;;;;3.00;2.70;;;;;;;21.83;39.14;97324.22;5052802;28;20199;-64
2021/06/14 00:46:46;;;;;;;4.13;3.00;;;;;;;21.88;38.03;97318.22;5053598;28;20209;-65
2021/06/14 00:49:12;;;;;;;5.67;3.07;;;;;;;21.86;37.85;97313.13;5051105;28;20198;-65
2021/06/14 00:51:37;;;;;;;5.73;3.00;;;;;;;21.75;40.34;97317.34;5041737;28;20203;-65
2021/06/14 00:54:03;;;;;;;3.20;2.83;;;;;;;21.76;38.15;97310.16;5036601;28;20186;-65
2021/06/14 00:56:29;;;;;;;3.50;2.83;;;;;;;21.61;39.37;97307.88;5052305;28;20179;-65
2021/06/14 00:58:54;;;;;;;3.63;2.70;;;;;;;21.51;38.71;97300.34;5049471;28;20207;-64
2021/06/14 01:01:20;;;;;;;5.30;2.93;;;;;;;21.60;40.48;97308.91;5043525;28;20610;-64
2021/06/14 01:03:46;;;;;;;5.57;3.00;;;;;;;20.90;39.28;97308.03;5052862;28;20214;-65
2021/06/14 01:06:14;;;;;;;3.37;3.07;;;;;;;20.38;40.26;97308.94;5052881;28;20673;-64
2021/06/14 01:08:43;;;;;;;6.27;3.43;;;;;;;20.58;40.42;97302.66;5046075;28;20581;-64
2021/06/14 01:11:27;;;;;;;5.17;2.57;;;;;;;21.25;40.67;97304.03;5048473;28;20704;-64
2021/06/14 01:13:59;;;;;;;4.07;2.90;;;;;;;21.53;39.32;97300.94;5044863;28;20445;-64
2021/06/14 01:16:33;;;;;;;3.97;2.83;;;;;;;21.36;41.17;97303.31;5029495;28;20421;-64
2021/06/14 01:19:03;;;;;;;2.73;2.53;;;;;;;21.97;40.29;97297.41;5053645;28;20430;-64
2021/06/14 01:21:32;;;;;;;6.37;2.57;;;;;;;22.24;39.19;97292.56;5050337;28;20935;-63
2021/06/14 01:24:17;;;;;;;3.37;2.60;;;;;;;22.67;38.71;97280.91;5036310;28;20430;-64
2021/06/14 01:26:49;;;;;;;8.40;2.40;;;;;;;23.00;37.90;97286.78;5035569;28;20464;-65
2021/06/14 01:29:15;;;;;;;3.70;2.83;;;;;;;22.84;38.37;97283.72;5052707;28;20422;-64
2021/06/14 01:31:41;;;;;;;4.67;2.70;;;;;;;22.65;37.53;97282.97;5055009;28;20457;-64
2021/06/14 01:34:07;;;;;;;5.13;2.87;;;;;;;22.03;38.39;97280.50;5054272;28;20747;-65
2021/06/14 01:36:36;;;;;;;5.63;2.40;;;;;;;21.25;40.27;97282.72;5048913;28;20464;-64
2021/06/14 01:39:04;;;;;;;3.10;2.70;;;;;;;21.37;41.36;97285.50;5052190;28;20214;-64
2021/06/14 01:41:30;;;;;;;5.00;3.13;;;;;;;21.32;38.95;97275.50;5053726;28;21002;-66
2021/06/14 01:43:58;;;;;;;3.10;2.80;;;;;;;21.85;40.57;97273.34;5050896;28;20430;-65
2021/06/14 01:46:26;;;;;;;4.03;2.57;;;;;;;22.23;39.38;97265.06;5050571;28;20453;-65
2021/06/14 01:48:52;;;;;;;4.03;2.73;;;;;;;21.92;38.41;97263.41;5052162;28;20516;-65
2021/06/14 01:51:23;;;;;;;4.07;2.90;;;;;;;22.13;38.43;97256.78;5048993;28;20544;-65
2021/06/14 01:54:08;;;;;;;2.67;2.47;;;;;;;21.97;37.69;97270.72;5045342;28;20421;-66
2021/06/14 01:56:36;;;;;;;5.90;3.37;;;;;;;21.89;39.15;97264.66;5050761;28;20439;-64
2021/06/14 01:59:03;;;;;;;4.37;2.90;;;;;;;21.48;38.87;97266.09;5051332;28;20916;-65
2021/06/14 02:01:30;;;;;;;5.70;3.30;;;;;;;21.92;40.33;97253.56;5050310;28;20428;-64
2021/06/14 02:03:56;;;;;;;4.20;2.80;;;;;;;21.86;40.41;97253.63;5049796;28;20627;-64
2021/06/14 02:06:26;;;;;;;3.87;2.70;;;;;;;22.25;39.64;97246.97;5051360;28;20476;-64
2021/06/14 02:08:51;;;;;;;4.50;2.80;;;;;;;22.91;38.56;97243.53;5044114;28;20427;-66
2021/06/14 02:11:17;;;;;;;5.93;3.07;;;;;;;23.23;37.85;97251.25;5048213;28;20829;-67
2021/06/14 02:13:44;;;;;;;3.13;2.83;;;;;;;22.15;37.11;97252.03;5049747;28;20195;-66
2021/06/14 02:16:09;;;;;;;3.50;2.87;;;;;;;20.79;41.81;97248.28;5049822;28;20460;-64
2021/06/14 02:18:35;;;;;;;5.77;3.10;;;;;;;20.86;40.31;97253.56;5051806;28;20537;-65
2021/06/14 02:21:01;;;;;;;5.63;3.40;;;;;;;20.13;41.86;97268.13;5046126;28;20234;-64
2021/06/14 02:23:26;;;;;;;6.93;3.53;;;;;;;19.08;44.56;97265.28;5050967;28;20535;-64
2021/06/14 02:25:52;;;;;;;9.03;3.20;;;;;;;19.27;46.21;97262.84;5049686;28;20291;-65
2021/06/14 02:28:17;;;;;;;3.70;3.20;;;;;;;19.74;44.82;97263.53;5051065;28;20187;-64
2021/06/14 02:30:43;;;;;;;2.50;2.20;;;;;;;20.38;43.18;97255.69;5050878;28;20210;-65
2021/06/14 02:33:09;;;;;;;6.57;3.13;;;;;;;20.18;41.54;97260.28;5050769;28;20218;-65
2021/06/14 02:35:34;;;;;;;5.33;3.30;;;;;;;19.59;43.73;97257.66;5049597;28;20210;-65
2021/06/14 02:38:04;;;;;;;6.20;3.30;;;;;;;19.17;43.74;97258.75;5049694;28;20187;-64
2021/06/14 02:40:32;;;;;;;3.80;3.00;;;;;;;20.24;43.09;97262.13;5042665;28;20243;-65
2021/06/14 02:42:59;;;;;;;5.13;3.07;;;;;;;19.84;42.33;97254.28;5050925;28;20414;-65
2021/06/14 02:45:26;;;;;;;4.20;3.10;;;;;;;20.47;43.67;97253.59;5033336;28;20440;-63
2021/06/14 02:47:52;;;;;;;3.70;3.00;;;;;;;21.12;40.71;97257.03;5050600;28;20426;-64
2021/06/14 02:50:22;;;;;;;5.87;3.10;;;;;;;19.87;43.44;97253.91;5049698;28;20422;-66
2021/06/14 02:52:51;;;;;;;5.60;3.17;;;;;;;19.74;44.26;97257.38;5050893;28;20467;-65
2021/06/14 02:55:19;;;;;;;6.87;3.17;;;;;;;19.74;44.05;97255.56;5051589;28;21045;-65
2021/06/14 02:57:50;;;;;;;4.63;2.93;;;;;;;20.04;43.17;97256.91;5057469;28;20429;-65
2021/06/14 03:00:16;;;;;;;5.97;3.90;;;;;;;18.67;45.01;97259.13;5046845;28;20497;-64
2021/06/14 03:02:42;;;;;;;9.67;4.10;;;;;;;18.24;46.88;97260.28;5056279;28;20432;-64
2021/06/14 03:05:09;;;;;;;4.80;3.90;;;;;;;18.31;46.18;97252.34;5057172;28;20450;-63
2021/06/14 03:07:35;;;;;;;3.50;3.07;;;;;;;18.80;47.66;97255.66;5052830;28;20266;-65
2021/06/14 03:10:05;;;;;;;3.13;2.80;;;;;;;20.50;44.09;97252.34;5045873;28;20925;-65
2021/06/14 03:12:30;;;;;;;3.60;2.97;;;;;;;21.05;42.38;97242.94;5057132;28;20464;-65
2021/06/14 03:14:56;;;;;;;3.13;2.90;;;;;;;21.77;40.96;97240.59;5055450;28;20437;-65
2021/06/14 03:17:22;;;;;;;3.20;2.90;;;;;;;22.22;39.93;97236.72;5057127;28;20760;-65
2021/06/14 03:19:48;;;;;;;4.67;2.37;;;;;;;22.48;38.64;97234.75;5051070;28;20434;-64
2021/06/14 03:22:15;;;;;;;3.40;2.90;;;;;;;22.41;38.53;97236.72;5050441;28;20178;-65
2021/06/14 03:24:41;;;;;;;9.70;5.90;;;;;;;21.51;40.08;97241.69;5057067;28;20940;-65
2021/06/14 03:27:08;;;;;;;5.63;3.97;;;;;;;21.65;40.22;97237.03;5056880;28;20474;-67
2021/06/14 03:29:34;;;;;;;4.50;3.13;;;;;;;21.96;40.13;97235.25;5045440;28;20464;-65
2021/06/14 03:32:01;;;;;;;3.73;3.20;;;;;;;21.69;39.91;97232.06;5051263;28;20457;-65
2021/06/14 03:34:28;;;;;;;4.60;3.17;;;;;;;22.29;39.75;97233.16;5051741;28;20477;-65
2021/06/14 03:36:53;;;;;;;4.63;3.90;;;;;;;22.63;39.02;97230.84;5055615;28;20487;-65
2021/06/14 03:39:20;;;;;;;6.37;3.00;;;;;;;22.79;38.54;97234.69;5056929;28;20433;-65
2021/06/14 03:41:47;;;;;;;6.43;3.67;;;;;;;22.94;37.54;97226.22;5049205;28;20316;-66
2021/06/14 03:44:13;;;;;;;4.53;3.50;;;;;;;23.01;38.06;97229.63;5055233;28;20490;-66
2021/06/14 03:46:39;;;;;;;5.77;3.80;;;;;;;22.91;37.76;97226.72;5039272;28;20904;-65
2021/06/14 03:49:05;;;;;;;5.83;3.50;;;;;;;22.78;38.30;97228.56;5056796;28;20752;-65
2021/06/14 03:51:30;;;;;;;5.07;3.23;;;;;;;23.05;37.90;97227.28;5056755;28;20849;-65
2021/06/14 03:53:56;;;;;;;4.80;3.43;;;;;;;22.52;37.17;97225.25;5056644;28;20433;-65
2021/06/14 03:56:26;;;;;;;5.87;3.63;;;;;;;21.92;38.52;97228.72;5056407;28;20690;-64
2021/06/14 03:58:52;;;;;;;3.83;2.90;;;;;;;22.14;39.91;97229.06;5057057;28;20179;-65
2021/06/14 04:01:19;;;;;;;5.50;3.10;;;;;;;22.59;38.81;97232.34;5052932;28;20543;-65
2021/06/14 04:03:53;;;;;;;4.00;3.07;;;;;;;22.73;38.43;97224.94;5056407;28;20270;-65
2021/06/14 04:06:18;;;;;;;4.63;3.40;;;;;;;22.86;38.18;97222.84;5056303;28;20449;-65
2021/06/14 04:08:44;;;;;;;3.80;3.27;;;;;;;22.73;38.36;97220.41;5052965;28;21056;-64
2021/06/14 04:11:09;;;;;;;4.23;2.77;;;;;;;22.94;38.18;97224.38;5052195;28;20274;-65
2021/06/14 04:13:35;;;;;;;6.07;3.23;;;;;;;22.93;38.03;97219.28;5053232;28;20482;-65
2021/06/14 04:16:01;;;;;;;8.03;3.20;;;;;;;22.81;38.39;97214.72;5053245;28;20203;-65
2021/06/14 04:18:26;;;;;;;3.20;2.80;;;;;;;23.01;38.03;97218.91;5053823;28;20183;-65
2021/06/14 04:20:52;;;;;;;5.30;3.37;;;;;;;23.12;37.82;97219.97;5050859;28;20273;-65
2021/06/14 04:23:17;;;;;;;4.27;2.97;;;;;;;23.08;38.00;97219.59;5051823;28;20646;-65
2021/06/14 04:25:43;;;;;;;5.87;3.10;;;;;;;23.08;36.96;97210.78;5053559;28;20202;-65
2021/06/14 04:28:08;;;;;;;6.67;2.90;;;;;;;22.88;37.93;97213.81;5053124;28;20191;-64
2021/06/14 04:30:35;;;;;;;5.40;3.20;;;;;;;22.85;38.12;97213.22;5049490;28;20183;-65
2021/06/14 04:33:00;;;;;;;4.07;2.83;;;;;;;22.67;37.81;97205.31;5052771;28;20601;-65
2021/06/14 04:35:26;;;;;;;5.83;3.03;;;;;;;22.53;37.90;97200.19;5052461;28;20445;-65
2021/06/14 04:37:51;;;;;;;10.63;3.87;;;;;;;22.54;37.41;97207.16;5052629;28;20277;-64
2021/06/14 04:40:17;;;;;;;5.60;3.47;;;;;;;22.17;39.29;97206.44;5052542;28;20202;-64
2021/06/14 04:42:43;;;;;;;4.43;2.93;;;;;;;22.23;38.86;97211.66;5053018;28;20637;-65
2021/06/14 04:45:09;;;;;;;5.70;3.40;;;;;;;22.14;37.69;97213.03;5052950;28;20260;-65
2021/06/14 04:47:34;;;;;;;9.43;3.40;;;;;;;22.09;39.26;97213.72;5053214;28;20187;-65
2021/06/14 04:50:01;;;;;;;8.10;3.30;;;;;;;22.27;39.05;97208.56;5051594;28;20578;-64
2021/06/14 04:52:28;;;;;;;4.50;2.97;;;;;;;22.09;38.57;97211.06;5052746;28;20561;-64
2021/06/14 04:54:54;;;;;;;4.63;3.63;;;;;;;21.59;38.23;97214.75;5050234;28;20453;-65
2021/06/14 04:57:19;;;;;;;8.07;4.00;;;;;;;21.60;38.76;97216.38;5045017;28;20433;-63
2021/06/14 04:59:45;;;;;;;5.50;3.40;;;;;;;21.46;40.18;97225.53;5051499;28;20413;-63
2021/06/14 05:02:11;;;;;;;6.10;3.97;;;;;;;21.37;39.98;97206.34;5046578;28;20283;-65
2021/06/14 05:04:36;;;;;;;8.53;4.33;;;;;;;21.25;40.10;97216.09;5039439;28;20617;-65
2021/06/14 05:07:02;;;;;;;8.17;3.80;;;;;;;21.40;40.37;97213.91;5052433;28;20193;-66
2021/06/14 05:09:27;;;;;;;8.03;3.37;;;;;;;21.56;39.71;97209.03;5052812;28;20175;-65
2021/06/14 05:11:53;;;;;;;5.10;3.30;;;;;;;20.77;39.89;97210.41;5052418;28;20290;-66
2021/06/14 05:14:19;;;;;;;11.80;3.33;;;;;;;21.04;39.35;97209.38;5050387;28;20202;-65
2021/06/14 05:16:44;;;;;;;7.07;3.53;;;;;;;21.48;39.10;97207.47;5052304;28;20183;-66
2021/06/14 05:19:10;;;;;;;6.03;3.03;;;;;;;21.75;39.22;97191.97;5045589;28;20179;-64
2021/06/14 05:21:36;;;;;;;4.60;3.37;;;;;;;21.34;39.52;97193.47;5039524;28;20281;-64
2021/06/14 05:24:02;;;;;;;7.57;3.20;;;;;;;21.40;39.48;97186.44;5051490;28;20179;-65
2021/06/14 05:26:28;;;;;;;7.93;3.50;;;;;;;21.32;39.76;97188.34;5051988;28;20444;-65
2021/06/14 05:28:53;;;;;;;9.77;3.90;;;;;;;20.63;40.48;97191.03;5052217;28;20417;-65
2021/06/14 05:31:19;;;;;;;3.97;3.50;;;;;;;20.67;40.41;97194.88;5042754;28;20215;-69
2021/06/14 05:33:45;;;;;;;5.57;3.70;;;;;;;20.63;40.03;97201.69;5050837;28;20233;-73
2021/06/14 05:36:10;;;;;;;13.23;6.33;;;;;;;20.19;41.11;97201.56;5051896;28;20278;-74
2021/06/14 05:38:36;;;;;;;14.53;6.40;;;;;;;19.85;42.04;97197.44;5052029;28;20175;-71
2021/06/14 05:41:02;;;;;;;8.13;5.10;;;;;;;19.53;42.73;97205.34;5051769;28;20592;-71
2021/06/14 05:43:27;;;;;;;7.17;4.70;;;;;;;19.57;42.62;97207.38;5047163;28;20215;-72
2021/06/14 05:45:53;;;;;;;6.27;4.07;;;;;;;19.35;43.37;97212.13;5042763;28;20261;-69
2021/06/14 05:48:18;;;;;;;7.00;3.70;;;;;;;19.87;42.33;97200.72;5043819;28;20192;-68
2021/06/14 05:50:44;;;;;;;23.17;4.00;;;;;;;19.73;42.45;97207.91;5052071;28;20191;-71
2021/06/14 05:53:10;;;;;;;10.50;3.80;;;;;;;19.51;42.75;97205.53;5052462;28;20301;-70
2021/06/14 05:55:36;;;;;;;13.07;3.87;;;;;;;19.24;43.59;97218.88;5052788;28;20582;-70
2021/06/14 05:58:01;;;;;;;8.90;3.93;;;;;;;19.80;42.74;97206.84;5052301;28;20677;-69
2021/06/14 06:00:27;;;;;;;7.17;4.20;;;;;;;20.29;41.95;97203.75;5052145;28;20429;-70
2021/06/14 06:02:52;;;;;;;6.20;3.80;;;;;;;20.20;42.12;97205.03;5034712;28;20184;-68
2021/06/14 06:05:18;;;;;;;6.43;4.10;;;;;;;20.52;41.86;97215.69;5025289;28;20332;-70
2021/06/14 06:07:44;;;;;;;6.53;3.33;;;;;;;20.55;41.57;97207.25;5028702;28;20191;-69
2021/06/14 06:10:10;;;;;;;9.60;4.00;;;;;;;20.57;41.60;97205.19;5049740;28;20647;-70
2021/06/14 06:12:38;;;;;;;13.53;3.70;;;;;;;20.87;40.46;97201.91;5035571;28;20635;-69
2021/06/14 06:15:06;;;;;;;10.33;4.10;;;;;;;20.90;40.57;97204.16;5027323;28;20450;-71
2021/06/14 06:17:32;;;;;;;7.13;3.80;;;;;;;20.82;40.55;97207.06;5049521;28;20421;-69
2021/06/14 06:19:57;;;;;;;6.80;3.70;;;;;;;21.17;39.60;97198.56;5049557;28;20496;-69
2021/06/14 06:22:23;;;;;;;8.20;3.53;;;;;;;21.07;40.01;97198.25;5045917;28;20175;-69
2021/06/14 06:24:48;;;;;;;6.73;3.00;;;;;;;21.47;39.50;97200.50;5049504;28;20229;-68
2021/06/14 06:27:14;;;;;;;8.67;3.50;;;;;;;21.89;38.67;97194.47;5049638;28;20225;-69
2021/06/14 06:29:39;;;;;;;7.50;4.07;;;;;;;22.05;38.14;97199.19;5049956;28;20183;-69
2021/06/14 06:32:05;;;;;;;5.60;3.50;;;;;;;22.10;37.84;97195.84;5049592;28;20211;-69
2021/06/14 06:34:31;;;;;;;4.50;3.20;;;;;;;22.07;37.68;97194.44;5050616;28;20289;-69
2021/06/14 06:36:57;;;;;;;9.30;4.53;;;;;;;22.34;37.27;97191.41;5049821;28;20521;-69
2021/06/14 06:39:22;;;;;;;6.50;2.90;;;;;;;22.51;37.49;97185.41;5041201;28;20186;-69
2021/06/14 06:41:48;;;;;;;9.57;3.53;;;;;;;22.43;37.50;97188.44;5049717;28;20635;-69
2021/06/14 06:44:13;;;;;;;5.27;3.00;;;;;;;22.10;38.13;97190.50;5047682;28;20187;-70
2021/06/14 06:46:39;;;;;;;7.40;3.27;;;;;;;22.06;37.66;97186.66;5050955;28;20187;-70
2021/06/14 06:49:05;;;;;;;4.40;2.93;;;;;;;22.04;37.79;97186.91;5042558;28;20183;-69
2021/06/14 06:51:31;;;;;;;11.60;3.90;;;;;;;22.16;37.90;97186.13;5051586;28;20235;-68
2021/06/14 06:54:12;;;;;;;9.10;3.40;;;;;;;22.44;37.30;97193.53;5045017;28;20430;-68
2021/06/14 06:56:42;;;;;;;15.47;3.90;;;;;;;22.46;37.42;97186.09;5038966;28;20417;-69
2021/06/14 06:59:08;;;;;;;8.50;3.37;;;;;;;22.80;36.82;97194.41;5050598;28;20429;-69
2021/06/14 07:01:34;;;;;;;8.80;3.80;;;;;;;22.75;36.76;97196.13;5034633;28;20426;-69
2021/06/14 07:04:00;;;;;;;3.33;3.00;;;;;;;22.91;36.04;97195.44;5050042;28;20457;-70
2021/06/14 07:06:25;;;;;;;6.37;3.20;;;;;;;23.21;36.01;97186.53;5050117;28;20195;-69
2021/06/14 07:08:53;;;;;;;5.13;3.30;;;;;;;23.26;35.46;97183.16;5047793;28;20191;-70
2021/06/14 07:11:19;;;;;;;6.80;3.33;;;;;;;23.60;34.38;97180.63;5053250;28;20201;-72
2021/06/14 07:13:45;;;;;;;5.13;3.37;;;;;;;23.31;34.62;97188.63;5051394;28;20421;-70
2021/06/14 07:16:10;;;;;;;4.43;2.90;;;;;;;23.47;34.93;97185.19;5037261;28;20283;-72
2021/06/14 07:18:36;;;;;;;6.00;3.03;;;;;;;24.07;34.21;97188.50;5046944;28;20298;-69
2021/06/14 07:21:01;;;;;;;5.40;3.30;;;;;;;24.03;34.15;97192.72;5044302;28;20184;-69
2021/06/14 07:23:27;;;;;;;5.17;3.00;;;;;;;23.97;33.54;97185.66;5050513;28;20183;-68
2021/06/14 07:25:52;;;;;;;6.20;3.07;;;;;;;23.49;34.14;97184.16;5050535;28;20293;-69
2021/06/14 07:28:18;;;;;;;4.23;3.00;;;;;;;24.22;33.46;97182.63;5041476;28;20246;-70
2021/06/14 07:30:44;;;;;;;4.90;2.93;;;;;;;24.69;32.98;97186.09;5038357;28;20183;-71
2021/06/14 07:33:09;;;;;;;6.73;2.90;;;;;;;24.53;32.64;97182.34;5048202;28;20289;-71
2021/06/14 07:35:38;;;;;;;5.80;3.20;;;;;;;24.75;32.31;97187.00;5050506;28;20218;-68
2021/06/14 07:38:04;;;;;;;7.67;3.60;;;;;;;24.66;31.87;97182.00;5050105;28;20237;-70
2021/06/14 07:40:30;;;;;;;4.30;2.80;;;;;;;24.34;32.17;97182.56;5050401;28;20924;-71
2021/06/14 07:42:56;;;;;;;7.17;2.70;;;;;;;24.39;32.70;97171.94;5048164;28;20422;-69
2021/06/14 07:45:24;;;;;;;5.57;3.60;;;;;;;24.49;32.97;97181.19;5052503;28;20210;-69
2021/06/14 07:47:50;;;;;;;4.20;2.80;;;;;;;24.72;32.81;97176.75;5054174;28;20183;-70
2021/06/14 07:50:16;;;;;;;4.57;2.90;;;;;;;25.02;32.01;97175.59;5053061;28;20429;-68
2021/06/14 07:52:42;;;;;;;5.60;2.70;;;;;;;25.28;31.46;97176.75;5052861;28;20948;-69
2021/06/14 07:55:10;;;;;;;4.77;3.00;;;;;;;25.02;31.93;97178.28;5053656;28;20660;-70
2021/06/14 07:57:35;;;;;;;7.30;3.33;;;;;;;25.08;32.29;97177.28;5049454;28;20422;-69
2021/06/14 08:00:03;;;;;;;4.30;3.67;;;;;;;25.45;31.94;97176.75;5050811;28;20429;-70
2021/06/14 08:02:29;;;;;;;8.03;3.10;;;;;;;25.33;32.13;97174.13;5052394;28;20206;-70
2021/06/14 08:04:54;;;;;;;9.70;3.10;;;;;;;25.68;31.55;97170.28;5053826;28;20457;-70
2021/06/14 08:07:20;;;;;;;8.60;3.30;;;;;;;25.83;31.68;97161.63;5053796;28;20281;-71
2021/06/14 08:09:48;;;;;;;7.17;4.00;;;;;;;25.56;31.79;97167.75;5054171;28;20218;-70
2021/06/14 08:12:13;;;;;;;5.90;3.10;;;;;;;25.08;32.17;97161.19;5051139;28;20668;-69
2021/06/14 08:14:39;;;;;;;7.80;2.90;;;;;;;24.74;32.61;97156.72;5053229;28;20544;-68
2021/06/14 08:17:05;;;;;;;7.97;2.93;;;;;;;25.22;32.15;97169.72;5052374;28;20186;-70
2021/06/14 08:19:44;;;;;;;5.80;2.77;;;;;;;25.63;31.33;97161.38;5052452;28;20657;-70
2021/06/14 08:25:07;;;;;;;4.47;2.83;;;;;;;25.65;31.57;97170.78;5053242;28;20516;-70
2021/06/14 08:27:38;;;;;;;8.47;5.27;;;;;;;25.89;30.85;97168.66;5038576;28;20421;-69
2021/06/14 08:30:07;;;;;;;7.20;3.10;;;;;;;26.36;30.44;97163.75;5053447;28;20428;-72
2021/06/14 08:32:33;;;;;;;6.80;2.83;;;;;;;26.37;30.16;97170.75;5053698;28;20457;-69
2021/06/14 08:34:59;;;;;;;4.83;2.80;;;;;;;26.37;30.07;97170.75;5053096;28;20441;-69
2021/06/14 08:37:25;;;;;;;3.57;2.80;;;;;;;26.12;30.54;97174.00;5052883;28;20471;-69
2021/06/14 08:39:51;;;;;;;4.63;2.70;;;;;;;26.46;29.34;97174.59;5052172;28;20267;-71
2021/06/14 08:42:17;;;;;;;4.40;2.73;;;;;;;26.69;29.58;97178.00;5049562;28;20202;-71
2021/06/14 08:44:43;;;;;;;7.13;2.90;;;;;;;26.44;29.60;97171.34;5053025;28;20476;-70
2021/06/14 08:47:09;;;;;;;8.23;3.50;;;;;;;26.75;29.63;97166.19;5053334;28;20884;-71
2021/06/14 08:49:35;;;;;;;6.73;4.10;;;;;;;26.70;29.05;97160.81;5046843;28;20179;-70
2021/06/14 08:52:02;;;;;;;4.43;2.40;;;;;;;26.62;28.98;97164.78;5053577;28;21110;-70
2021/06/14 08:54:28;;;;;;;5.40;3.10;;;;;;;26.76;28.94;97161.66;5053230;28;20425;-71
2021/06/14 08:56:54;;;;;;;5.70;2.60;;;;;;;26.94;28.52;97160.44;5054244;28;20464;-70
2021/06/14 08:59:21;;;;;;;7.60;3.10;;;;;;;26.61;28.98;97159.63;5052171;28;20554;-70
2021/06/14 09:01:47;;;;;;;8.23;3.40;;;;;;;26.95;29.31;97154.81;5053533;28;20428;-70
2021/06/14 09:04:12;;;;;;;8.43;2.73;;;;;;;27.08;28.40;97150.03;5044726;28;20421;-70
2021/06/14 09:06:38;;;;;;;3.07;2.73;;;;;;;27.55;27.91;97151.88;5053314;28;20241;-70
2021/06/14 09:09:09;;;;;;;6.73;2.80;;;;;;;27.39;28.06;97153.69;5051712;28;20233;-69
2021/06/14 09:11:37;;;;;;;3.97;2.60;;;;;;;27.61;27.15;97149.22;5051642;28;20662;-70
2021/06/14 09:14:17;;;;;;;5.40;2.50;;;;;;;27.40;28.05;97149.91;5049682;28;20422;-69
2021/06/14 09:16:42;;;;;;;6.13;2.57;;;;;;;26.97;27.45;97151.84;5050812;28;20409;-69
2021/06/14 09:19:22;;;;;;;4.43;2.90;;;;;;;27.43;26.91;97138.63;5051545;28;20433;-68
2021/06/14 09:21:54;;;;;;;6.53;2.40;;;;;;;27.63;27.36;97137.09;5049300;28;20188;-69
2021/06/14 09:24:20;;;;;;;6.40;2.77;;;;;;;26.93;28.60;97140.81;5050935;28;20932;-70
2021/06/14 09:26:46;;;;;;;6.30;3.70;;;;;;;27.82;27.67;97134.75;5052318;28;20429;-70
2021/06/14 09:29:20;;;;;;;6.03;2.20;;;;;;;28.11;25.64;97136.16;5050892;28;20255;-69
2021/06/14 09:31:54;;;;;;;4.30;2.90;;;;;;;27.97;26.31;97141.22;5052020;28;20713;-69
2021/06/14 09:34:31;;;;;;;5.67;2.73;;;;;;;28.22;26.51;97131.59;5051423;28;20973;-70
2021/06/14 09:36:58;;;;;;;5.93;2.73;;;;;;;28.22;26.44;97126.19;5050254;28;20974;-70
2021/06/14 09:39:24;;;;;;;3.20;2.10;;;;;;;27.80;26.95;97131.50;5050893;28;20469;-70
2021/06/14 09:41:51;;;;;;;5.70;2.60;;;;;;;27.92;26.63;97133.13;5051977;28;20453;-69
2021/06/14 09:44:27;;;;;;;4.60;2.80;;;;;;;27.64;27.68;97132.56;5049301;28;20210;-69
2021/06/14 09:47:04;;;;;;;3.50;2.40;;;;;;;28.33;26.64;97128.66;5050989;28;20422;-70
2021/06/14 09:49:30;;;;;;;4.50;2.40;;;;;;;28.58;26.71;97129.72;5037247;28;20893;-66
2021/06/14 09:51:57;;;;;;;9.20;3.10;;;;;;;28.78;25.78;97123.50;5051551;28;20569;-70
2021/06/14 09:54:31;;;;;;;3.37;2.30;;;;;;;28.60;24.39;97121.34;5051266;28;20511;-71
2021/06/14 09:56:57;;;;;;;2.43;2.23;;;;;;;28.17;25.64;97125.13;5043433;28;20477;-70
2021/06/14 09:59:28;;;;;;;5.33;2.70;;;;;;;28.57;25.02;97116.50;5035486;28;20430;-70
2021/06/14 10:02:23;;;;;;;11.97;2.50;;;;;;;27.85;25.89;97118.06;5051809;28;20919;-69
2021/06/14 10:04:53;;;;;;;7.60;2.60;;;;;;;28.13;26.37;97123.22;5043315;28;20454;-70
2021/06/14 10:07:20;;;;;;;10.13;2.53;;;;;;;26.98;27.31;97126.56;5048872;28;20852;-70
2021/06/14 10:09:48;;;;;;;5.00;2.43;;;;;;;27.95;26.80;97111.06;5048536;28;20429;-70
2021/06/14 10:12:28;;;;;;;4.10;2.40;;;;;;;28.39;25.67;97104.38;5048448;28;20461;-69
2021/06/14 10:14:58;;;;;;;9.53;2.37;;;;;;;28.20;26.19;97094.16;5049054;28;20449;-71
2021/06/14 10:17:38;;;;;;;5.87;2.10;;;;;;;28.38;25.45;97091.97;5040098;28;20924;-70
2021/06/14 10:20:09;;;;;;;5.37;2.30;;;;;;;28.32;24.55;97089.31;5048779;28;21227;-70
2021/06/14 10:22:35;;;;;;;4.80;3.27;;;;;;;28.94;23.42;97088.41;5049102;28;20556;-69
2021/06/14 10:25:01;;;;;;;5.13;2.50;;;;;;;29.32;23.40;97088.78;5048405;28;20453;-70
2021/06/14 10:27:27;;;;;;;5.33;3.10;;;;;;;29.89;22.81;97092.00;5056187;28;20424;-71
2021/06/14 10:29:52;;;;;;;3.77;2.70;;;;;;;29.60;23.13;97093.81;5048065;28;20233;-70
2021/06/14 10:32:18;;;;;;;4.10;2.30;;;;;;;30.01;22.88;97086.28;5032332;28;20697;-70
2021/06/14 10:34:48;;;;;;;3.90;2.33;;;;;;;29.16;24.27;97082.66;5031833;28;20302;-71
2021/06/14 10:37:15;;;;;;;4.80;2.30;;;;;;;29.84;23.00;97078.56;5047508;28;20628;-69
2021/06/14 10:39:44;;;;;;;3.87;2.23;;;;;;;29.71;22.54;97076.47;5048562;28;20503;-69
2021/06/14 10:42:10;;;;;;;4.10;2.27;;;;;;;29.46;22.54;97075.56;5028824;28;20864;-70
2021/06/14 10:44:36;;;;;;;3.17;2.03;;;;;;;29.52;22.33;97068.22;5041080;28;20540;-70
2021/06/14 10:47:02;;;;;;;4.43;2.60;;;;;;;29.15;23.51;97075.66;5050179;28;20414;-70
2021/06/14 10:49:28;;;;;;;4.53;2.03;;;;;;;29.11;23.77;97066.53;5045517;28;20657;-71
2021/06/14 10:52:01;;;;;;;4.93;2.30;;;;;;;29.73;24.02;97060.81;5033916;28;20469;-70
2021/06/14 10:54:36;;;;;;;3.90;2.40;;;;;;;29.35;23.57;97057.81;5034175;28;20422;-69
2021/06/14 10:57:04;;;;;;;3.23;1.80;;;;;;;29.33;23.20;97059.94;5051327;28;20421;-69
2021/06/14 10:59:37;;;;;;;5.20;1.63;;;;;;;29.26;23.01;97071.81;5044509;28;20418;-71
2021/06/14 11:02:05;;;;;;;3.83;2.10;;;;;;;29.94;22.07;97055.25;5052164;28;20417;-71
2021/06/14 11:04:31;;;;;;;8.60;2.30;;;;;;;29.68;22.84;97058.13;5049291;28;20826;-69
2021/06/14 11:06:59;;;;;;;5.10;2.20;;;;;;;29.31;23.06;97045.91;5050124;28;20433;-70
2021/06/14 11:09:42;;;;;;;6.67;2.80;;;;;;;30.28;22.79;97049.03;5034402;28;20182;-71
2021/06/14 11:12:09;;;;;;;2.87;2.30;;;;;;;30.64;22.03;97051.41;5048167;28;20484;-68
2021/06/14 11:14:45;;;;;;;6.73;2.80;;;;;;;30.53;21.75;97039.91;5050945;28;20450;-69
2021/06/14 11:17:16;;;;;;;4.80;2.97;;;;;;;30.99;21.38;97035.09;5052988;28;20795;-68
2021/06/14 11:19:44;;;;;;;2.90;1.83;;;;;;;30.40;22.20;97029.75;5054903;28;20429;-71
2021/06/14 11:22:10;;;;;;;2.53;2.00;;;;;;;30.67;21.76;97036.53;5051001;28;20429;-69
2021/06/14 11:24:37;;;;;;;3.93;2.30;;;;;;;30.25;22.19;97038.81;5053722;28;20459;-70
2021/06/14 11:27:09;;;;;;;6.50;2.23;;;;;;;30.77;21.51;97034.50;5053366;28;20673;-68
2021/06/14 11:29:45;;;;;;;5.63;2.00;;;;;;;31.15;20.74;97022.19;5053802;28;20827;-69
2021/06/14 11:32:17;;;;;;;4.10;2.10;;;;;;;31.60;21.18;97017.25;5046294;28;20454;-70
2021/06/14 11:34:46;;;;;;;5.47;1.83;;;;;;;31.52;21.22;97016.00;5054092;28;20589;-67
2021/06/14 11:37:11;;;;;;;3.57;2.20;;;;;;;31.19;21.29;97017.81;5046025;28;20437;-69